Cascabel, Arizona
Current Conditions -  °F | °C
As of 1:58 PM on Monday 20 Oct 2014 (Local Time) from KDMA Reporting Station
Clear Clear  
Wind Chill: 81°   Ceiling: Unl
Heat Index: 81°   Visibility: 10mi
Dew Point: 48°   Wind: 3mph
Humidity: 31%   Direction: 180°S
Pressure: 29.9"   Gusts: NA
Location:  32.1865°N, 110.265°W
Report Text: KDMA 202058Z AUTO 18003KT 10SM CLR 27/09 A2990 RMK AO2 SLP088 60000 T02720088 57021 $
Loading
Personal Weather Stations






























Interactive Weather Map
Tropical Storm Tracking
New forecast layout! Learn more

10-Day Weather Forecast

Advertisements
Track Severe Weather on mobile